sensor_id;sensor_type;location;lat;lon;timestamp;P1;durP1;ratioP1;P2;durP2;ratioP2
50517;SDS011;37075;44.084;2.962;2024-02-21T00:00:44;6.78;;;2.55;;
50517;SDS011;37075;44.084;2.962;2024-02-21T00:03:31;4.72;;;2.20;;
50517;SDS011;37075;44.084;2.962;2024-02-21T00:06:17;4.05;;;2.15;;
50517;SDS011;37075;44.084;2.962;2024-02-21T00:09:04;7.18;;;2.67;;
50517;SDS011;37075;44.084;2.962;2024-02-21T00:11:51;5.57;;;2.40;;
50517;SDS011;37075;44.084;2.962;2024-02-21T00:14:37;6.28;;;1.77;;
50517;SDS011;37075;44.084;2.962;2024-02-21T00:17:23;1.67;;;1.58;;
50517;SDS011;37075;44.084;2.962;2024-02-21T00:20:10;4.70;;;2.13;;
50517;SDS011;37075;44.084;2.962;2024-02-21T00:22:56;3.20;;;2.05;;
50517;SDS011;37075;44.084;2.962;2024-02-21T00:25:44;3.28;;;1.80;;
50517;SDS011;37075;44.084;2.962;2024-02-21T00:28:31;5.13;;;1.98;;
50517;SDS011;37075;44.084;2.962;2024-02-21T00:31:16;3.90;;;2.67;;
50517;SDS011;37075;44.084;2.962;2024-02-21T00:34:02;9.07;;;2.65;;
50517;SDS011;37075;44.084;2.962;2024-02-21T00:36:49;3.67;;;2.03;;
50517;SDS011;37075;44.084;2.962;2024-02-21T00:39:35;9.07;;;2.38;;
50517;SDS011;37075;44.084;2.962;2024-02-21T00:42:23;5.53;;;2.22;;
50517;SDS011;37075;44.084;2.962;2024-02-21T00:45:09;2.97;;;1.35;;
50517;SDS011;37075;44.084;2.962;2024-02-21T00:47:55;3.50;;;1.85;;
50517;SDS011;37075;44.084;2.962;2024-02-21T00:50:41;11.38;;;1.83;;
50517;SDS011;37075;44.084;2.962;2024-02-21T00:53:27;3.13;;;1.27;;
50517;SDS011;37075;44.084;2.962;2024-02-21T00:56:13;2.72;;;1.75;;
50517;SDS011;37075;44.084;2.962;2024-02-21T00:59:00;3.22;;;1.55;;
50517;SDS011;37075;44.084;2.962;2024-02-21T01:01:46;4.28;;;1.80;;
50517;SDS011;37075;44.084;2.962;2024-02-21T01:04:31;7.00;;;3.08;;
50517;SDS011;37075;44.084;2.962;2024-02-21T01:07:17;5.38;;;2.67;;
50517;SDS011;37075;44.084;2.962;2024-02-21T01:10:03;7.60;;;3.17;;
50517;SDS011;37075;44.084;2.962;2024-02-21T01:12:50;9.50;;;3.25;;
50517;SDS011;37075;44.084;2.962;2024-02-21T01:15:37;6.70;;;2.88;;
50517;SDS011;37075;44.084;2.962;2024-02-21T01:18:23;4.25;;;1.67;;
50517;SDS011;37075;44.084;2.962;2024-02-21T01:21:09;5.20;;;3.45;;
50517;SDS011;37075;44.084;2.962;2024-02-21T01:23:55;3.08;;;2.33;;
50517;SDS011;37075;44.084;2.962;2024-02-21T01:26:41;4.75;;;2.55;;
50517;SDS011;37075;44.084;2.962;2024-02-21T01:29:27;3.92;;;1.80;;
50517;SDS011;37075;44.084;2.962;2024-02-21T01:32:14;6.97;;;1.95;;
50517;SDS011;37075;44.084;2.962;2024-02-21T01:35:00;1.97;;;1.00;;
50517;SDS011;37075;44.084;2.962;2024-02-21T01:37:46;5.47;;;2.20;;
50517;SDS011;37075;44.084;2.962;2024-02-21T01:40:33;3.95;;;2.15;;
50517;SDS011;37075;44.084;2.962;2024-02-21T01:43:19;6.53;;;2.05;;
50517;SDS011;37075;44.084;2.962;2024-02-21T01:46:06;3.78;;;1.58;;
50517;SDS011;37075;44.084;2.962;2024-02-21T01:48:53;2.65;;;1.10;;
50517;SDS011;37075;44.084;2.962;2024-02-21T01:51:40;8.38;;;2.95;;
50517;SDS011;37075;44.084;2.962;2024-02-21T01:54:26;5.38;;;1.77;;
50517;SDS011;37075;44.084;2.962;2024-02-21T01:57:14;6.47;;;1.35;;
50517;SDS011;37075;44.084;2.962;2024-02-21T02:00:00;5.38;;;1.45;;
50517;SDS011;37075;44.084;2.962;2024-02-21T02:02:55;3.55;;;2.50;;
50517;SDS011;37075;44.084;2.962;2024-02-21T02:05:44;12.02;;;2.45;;
50517;SDS011;37075;44.084;2.962;2024-02-21T02:08:31;4.68;;;2.08;;
50517;SDS011;37075;44.084;2.962;2024-02-21T02:11:17;3.92;;;1.55;;
50517;SDS011;37075;44.084;2.962;2024-02-21T02:14:04;2.15;;;1.60;;
50517;SDS011;37075;44.084;2.962;2024-02-21T02:16:50;6.78;;;1.70;;
50517;SDS011;37075;44.084;2.962;2024-02-21T02:19:36;15.75;;;2.97;;
50517;SDS011;37075;44.084;2.962;2024-02-21T02:22:25;2.90;;;1.85;;
50517;SDS011;37075;44.084;2.962;2024-02-21T02:25:15;2.28;;;0.90;;
50517;SDS011;37075;44.084;2.962;2024-02-21T02:28:02;3.80;;;2.83;;
50517;SDS011;37075;44.084;2.962;2024-02-21T02:30:48;3.20;;;1.53;;
50517;SDS011;37075;44.084;2.962;2024-02-21T02:33:35;3.28;;;2.15;;
50517;SDS011;37075;44.084;2.962;2024-02-21T02:36:20;3.55;;;1.60;;
50517;SDS011;37075;44.084;2.962;2024-02-21T02:39:07;6.22;;;2.80;;
50517;SDS011;37075;44.084;2.962;2024-02-21T02:41:54;4.72;;;2.75;;
50517;SDS011;37075;44.084;2.962;2024-02-21T02:44:40;4.57;;;2.30;;
50517;SDS011;37075;44.084;2.962;2024-02-21T02:47:26;4.90;;;1.75;;
50517;SDS011;37075;44.084;2.962;2024-02-21T02:50:12;2.25;;;1.38;;
50517;SDS011;37075;44.084;2.962;2024-02-21T02:52:58;2.15;;;1.77;;
50517;SDS011;37075;44.084;2.962;2024-02-21T02:55:44;4.03;;;1.95;;
50517;SDS011;37075;44.084;2.962;2024-02-21T02:58:31;4.78;;;2.08;;
50517;SDS011;37075;44.084;2.962;2024-02-21T03:01:19;3.22;;;1.85;;
50517;SDS011;37075;44.084;2.962;2024-02-21T03:04:05;1.08;;;0.90;;
50517;SDS011;37075;44.084;2.962;2024-02-21T03:06:51;4.07;;;2.72;;
50517;SDS011;37075;44.084;2.962;2024-02-21T03:09:37;4.85;;;2.13;;
50517;SDS011;37075;44.084;2.962;2024-02-21T03:12:23;3.45;;;2.40;;
50517;SDS011;37075;44.084;2.962;2024-02-21T03:15:13;3.75;;;1.80;;
50517;SDS011;37075;44.084;2.962;2024-02-21T03:17:59;1.73;;;1.60;;
50517;SDS011;37075;44.084;2.962;2024-02-21T03:20:45;3.38;;;2.55;;
50517;SDS011;37075;44.084;2.962;2024-02-21T03:23:31;3.25;;;1.65;;
50517;SDS011;37075;44.084;2.962;2024-02-21T03:26:17;4.68;;;1.98;;
50517;SDS011;37075;44.084;2.962;2024-02-21T03:29:03;7.25;;;2.35;;
50517;SDS011;37075;44.084;2.962;2024-02-21T03:31:50;3.97;;;1.80;;
50517;SDS011;37075;44.084;2.962;2024-02-21T03:34:36;10.15;;;3.72;;
50517;SDS011;37075;44.084;2.962;2024-02-21T03:37:22;2.20;;;1.52;;
50517;SDS011;37075;44.084;2.962;2024-02-21T03:40:08;3.88;;;1.77;;
50517;SDS011;37075;44.084;2.962;2024-02-21T03:42:55;5.28;;;1.83;;
50517;SDS011;37075;44.084;2.962;2024-02-21T03:45:41;3.50;;;1.92;;
50517;SDS011;37075;44.084;2.962;2024-02-21T03:48:28;4.38;;;1.77;;
50517;SDS011;37075;44.084;2.962;2024-02-21T03:51:14;2.37;;;1.73;;
50517;SDS011;37075;44.084;2.962;2024-02-21T03:54:00;3.38;;;2.42;;
50517;SDS011;37075;44.084;2.962;2024-02-21T03:56:45;3.35;;;1.98;;
50517;SDS011;37075;44.084;2.962;2024-02-21T03:59:33;2.47;;;1.35;;
50517;SDS011;37075;44.084;2.962;2024-02-21T04:02:19;3.20;;;2.50;;
50517;SDS011;37075;44.084;2.962;2024-02-21T04:05:06;1.65;;;1.27;;
50517;SDS011;37075;44.084;2.962;2024-02-21T04:07:55;4.80;;;1.65;;
50517;SDS011;37075;44.084;2.962;2024-02-21T04:10:41;2.58;;;1.65;;
50517;SDS011;37075;44.084;2.962;2024-02-21T04:13:27;3.53;;;1.73;;
50517;SDS011;37075;44.084;2.962;2024-02-21T04:16:13;7.40;;;2.95;;
50517;SDS011;37075;44.084;2.962;2024-02-21T04:18:59;3.13;;;2.25;;
50517;SDS011;37075;44.084;2.962;2024-02-21T04:21:47;2.42;;;1.58;;
50517;SDS011;37075;44.084;2.962;2024-02-21T04:24:33;4.85;;;1.55;;
50517;SDS011;37075;44.084;2.962;2024-02-21T04:27:19;6.50;;;2.45;;
50517;SDS011;37075;44.084;2.962;2024-02-21T04:30:06;2.08;;;1.52;;
50517;SDS011;37075;44.084;2.962;2024-02-21T04:32:54;5.22;;;2.65;;
50517;SDS011;37075;44.084;2.962;2024-02-21T04:35:40;6.05;;;1.65;;
50517;SDS011;37075;44.084;2.962;2024-02-21T04:38:27;5.03;;;2.70;;
50517;SDS011;37075;44.084;2.962;2024-02-21T04:44:00;5.10;;;3.28;;
50517;SDS011;37075;44.084;2.962;2024-02-21T04:46:48;3.25;;;1.90;;
50517;SDS011;37075;44.084;2.962;2024-02-21T04:49:34;2.45;;;1.65;;
50517;SDS011;37075;44.084;2.962;2024-02-21T04:52:20;5.78;;;1.77;;
50517;SDS011;37075;44.084;2.962;2024-02-21T04:55:07;4.60;;;2.50;;
50517;SDS011;37075;44.084;2.962;2024-02-21T04:57:54;2.95;;;2.00;;
50517;SDS011;37075;44.084;2.962;2024-02-21T05:00:39;14.48;;;3.40;;
50517;SDS011;37075;44.084;2.962;2024-02-21T05:03:25;3.08;;;1.65;;
50517;SDS011;37075;44.084;2.962;2024-02-21T05:06:11;2.75;;;2.13;;
50517;SDS011;37075;44.084;2.962;2024-02-21T05:08:57;6.75;;;2.90;;
50517;SDS011;37075;44.084;2.962;2024-02-21T05:11:44;6.80;;;1.98;;
50517;SDS011;37075;44.084;2.962;2024-02-21T05:14:30;4.63;;;1.70;;
50517;SDS011;37075;44.084;2.962;2024-02-21T05:17:16;2.60;;;1.35;;
50517;SDS011;37075;44.084;2.962;2024-02-21T05:20:02;2.22;;;1.75;;
50517;SDS011;37075;44.084;2.962;2024-02-21T05:22:50;4.20;;;1.50;;
50517;SDS011;37075;44.084;2.962;2024-02-21T05:25:36;9.25;;;2.28;;
50517;SDS011;37075;44.084;2.962;2024-02-21T05:28:23;10.57;;;2.25;;
50517;SDS011;37075;44.084;2.962;2024-02-21T05:31:09;8.30;;;2.00;;
50517;SDS011;37075;44.084;2.962;2024-02-21T05:33:55;3.15;;;1.48;;
50517;SDS011;37075;44.084;2.962;2024-02-21T05:36:41;3.65;;;1.52;;
50517;SDS011;37075;44.084;2.962;2024-02-21T05:39:27;6.20;;;2.58;;
50517;SDS011;37075;44.084;2.962;2024-02-21T05:42:14;2.80;;;1.45;;
50517;SDS011;37075;44.084;2.962;2024-02-21T05:45:01;4.38;;;2.05;;
50517;SDS011;37075;44.084;2.962;2024-02-21T05:47:48;7.38;;;2.38;;
50517;SDS011;37075;44.084;2.962;2024-02-21T05:50:34;8.18;;;2.45;;
50517;SDS011;37075;44.084;2.962;2024-02-21T05:53:20;4.78;;;2.35;;
50517;SDS011;37075;44.084;2.962;2024-02-21T05:56:09;13.27;;;2.33;;
50517;SDS011;37075;44.084;2.962;2024-02-21T05:58:55;4.50;;;1.60;;
50517;SDS011;37075;44.084;2.962;2024-02-21T06:01:43;5.65;;;2.60;;
50517;SDS011;37075;44.084;2.962;2024-02-21T06:04:29;2.22;;;1.98;;
50517;SDS011;37075;44.084;2.962;2024-02-21T06:07:14;2.63;;;1.35;;
50517;SDS011;37075;44.084;2.962;2024-02-21T06:10:01;3.95;;;1.52;;
50517;SDS011;37075;44.084;2.962;2024-02-21T06:12:47;5.55;;;2.05;;
50517;SDS011;37075;44.084;2.962;2024-02-21T06:15:33;10.63;;;3.08;;
50517;SDS011;37075;44.084;2.962;2024-02-21T06:18:21;7.05;;;2.17;;
50517;SDS011;37075;44.084;2.962;2024-02-21T06:21:07;3.45;;;1.35;;
50517;SDS011;37075;44.084;2.962;2024-02-21T06:23:53;18.35;;;2.50;;
50517;SDS011;37075;44.084;2.962;2024-02-21T06:26:39;16.63;;;3.30;;
50517;SDS011;37075;44.084;2.962;2024-02-21T06:29:25;5.20;;;2.85;;
50517;SDS011;37075;44.084;2.962;2024-02-21T06:32:11;5.00;;;1.92;;
50517;SDS011;37075;44.084;2.962;2024-02-21T06:34:59;16.45;;;3.25;;
50517;SDS011;37075;44.084;2.962;2024-02-21T06:37:46;3.78;;;2.83;;
50517;SDS011;37075;44.084;2.962;2024-02-21T06:40:35;3.40;;;1.27;;
50517;SDS011;37075;44.084;2.962;2024-02-21T06:43:24;7.50;;;3.58;;
50517;SDS011;37075;44.084;2.962;2024-02-21T06:46:10;5.32;;;2.78;;
50517;SDS011;37075;44.084;2.962;2024-02-21T06:48:56;3.15;;;1.15;;
50517;SDS011;37075;44.084;2.962;2024-02-21T06:51:43;2.63;;;1.67;;
50517;SDS011;37075;44.084;2.962;2024-02-21T06:54:29;5.40;;;1.65;;
50517;SDS011;37075;44.084;2.962;2024-02-21T06:57:15;8.13;;;3.70;;
50517;SDS011;37075;44.084;2.962;2024-02-21T07:00:01;5.95;;;1.77;;
50517;SDS011;37075;44.084;2.962;2024-02-21T07:02:48;2.35;;;1.63;;
50517;SDS011;37075;44.084;2.962;2024-02-21T07:05:34;8.95;;;4.55;;
50517;SDS011;37075;44.084;2.962;2024-02-21T07:08:21;9.65;;;3.72;;
50517;SDS011;37075;44.084;2.962;2024-02-21T07:11:07;14.20;;;3.75;;
50517;SDS011;37075;44.084;2.962;2024-02-21T07:13:53;11.15;;;3.25;;
50517;SDS011;37075;44.084;2.962;2024-02-21T07:16:39;6.05;;;3.13;;
50517;SDS011;37075;44.084;2.962;2024-02-21T07:19:25;13.75;;;2.17;;
50517;SDS011;37075;44.084;2.962;2024-02-21T07:22:10;9.32;;;4.50;;
50517;SDS011;37075;44.084;2.962;2024-02-21T07:24:57;5.88;;;2.90;;
50517;SDS011;37075;44.084;2.962;2024-02-21T07:27:44;8.88;;;2.80;;
50517;SDS011;37075;44.084;2.962;2024-02-21T07:30:30;4.80;;;2.95;;
50517;SDS011;37075;44.084;2.962;2024-02-21T07:33:16;10.07;;;2.45;;
50517;SDS011;37075;44.084;2.962;2024-02-21T07:36:05;3.58;;;2.47;;
50517;SDS011;37075;44.084;2.962;2024-02-21T07:38:52;7.70;;;2.75;;
50517;SDS011;37075;44.084;2.962;2024-02-21T07:41:39;4.68;;;1.63;;
50517;SDS011;37075;44.084;2.962;2024-02-21T07:44:27;5.47;;;2.92;;
50517;SDS011;37075;44.084;2.962;2024-02-21T07:47:13;5.07;;;2.25;;
50517;SDS011;37075;44.084;2.962;2024-02-21T07:49:59;4.22;;;2.58;;
50517;SDS011;37075;44.084;2.962;2024-02-21T07:52:45;5.05;;;2.63;;
50517;SDS011;37075;44.084;2.962;2024-02-21T07:55:31;4.50;;;1.90;;
50517;SDS011;37075;44.084;2.962;2024-02-21T07:58:18;6.38;;;2.40;;
50517;SDS011;37075;44.084;2.962;2024-02-21T08:01:04;2.88;;;1.95;;
50517;SDS011;37075;44.084;2.962;2024-02-21T08:03:50;3.10;;;2.05;;
50517;SDS011;37075;44.084;2.962;2024-02-21T08:06:36;2.53;;;1.50;;
50517;SDS011;37075;44.084;2.962;2024-02-21T08:09:22;4.60;;;1.95;;
50517;SDS011;37075;44.084;2.962;2024-02-21T08:12:08;3.72;;;2.13;;
50517;SDS011;37075;44.084;2.962;2024-02-21T08:14:55;4.30;;;2.95;;
50517;SDS011;37075;44.084;2.962;2024-02-21T08:17:41;5.43;;;3.60;;
50517;SDS011;37075;44.084;2.962;2024-02-21T08:20:27;8.85;;;4.95;;
50517;SDS011;37075;44.084;2.962;2024-02-21T08:23:15;11.30;;;5.88;;
50517;SDS011;37075;44.084;2.962;2024-02-21T08:26:02;6.03;;;4.57;;
50517;SDS011;37075;44.084;2.962;2024-02-21T08:31:37;9.80;;;4.47;;
50517;SDS011;37075;44.084;2.962;2024-02-21T08:34:22;5.37;;;3.57;;
50517;SDS011;37075;44.084;2.962;2024-02-21T08:37:08;5.78;;;2.50;;
50517;SDS011;37075;44.084;2.962;2024-02-21T08:39:55;6.30;;;3.92;;
50517;SDS011;37075;44.084;2.962;2024-02-21T08:42:40;8.43;;;3.85;;
50517;SDS011;37075;44.084;2.962;2024-02-21T08:45:27;5.32;;;2.63;;
50517;SDS011;37075;44.084;2.962;2024-02-21T08:48:14;6.75;;;4.40;;
50517;SDS011;37075;44.084;2.962;2024-02-21T08:51:00;5.20;;;3.42;;
50517;SDS011;37075;44.084;2.962;2024-02-21T08:53:46;4.25;;;2.75;;
50517;SDS011;37075;44.084;2.962;2024-02-21T08:56:33;3.72;;;2.88;;
50517;SDS011;37075;44.084;2.962;2024-02-21T08:59:19;3.55;;;2.53;;
50517;SDS011;37075;44.084;2.962;2024-02-21T09:02:06;5.53;;;2.50;;
50517;SDS011;37075;44.084;2.962;2024-02-21T09:04:54;3.25;;;1.70;;
50517;SDS011;37075;44.084;2.962;2024-02-21T09:07:41;6.00;;;3.47;;
50517;SDS011;37075;44.084;2.962;2024-02-21T09:10:26;3.85;;;1.75;;
50517;SDS011;37075;44.084;2.962;2024-02-21T09:13:12;3.83;;;1.83;;
50517;SDS011;37075;44.084;2.962;2024-02-21T09:15:58;6.22;;;1.45;;
50517;SDS011;37075;44.084;2.962;2024-02-21T09:18:44;3.58;;;1.52;;
50517;SDS011;37075;44.084;2.962;2024-02-21T09:21:32;1.75;;;1.20;;
50517;SDS011;37075;44.084;2.962;2024-02-21T09:24:18;5.00;;;2.72;;
50517;SDS011;37075;44.084;2.962;2024-02-21T09:27:04;2.90;;;1.40;;
50517;SDS011;37075;44.084;2.962;2024-02-21T09:29:51;10.63;;;1.60;;
50517;SDS011;37075;44.084;2.962;2024-02-21T09:32:37;3.40;;;0.77;;
50517;SDS011;37075;44.084;2.962;2024-02-21T09:35:23;3.47;;;1.67;;
50517;SDS011;37075;44.084;2.962;2024-02-21T09:38:12;2.72;;;1.67;;
50517;SDS011;37075;44.084;2.962;2024-02-21T09:40:59;2.35;;;0.80;;
50517;SDS011;37075;44.084;2.962;2024-02-21T09:46:35;1.70;;;1.08;;
50517;SDS011;37075;44.084;2.962;2024-02-21T09:49:30;4.97;;;1.27;;
50517;SDS011;37075;44.084;2.962;2024-02-21T09:52:18;2.05;;;1.10;;
50517;SDS011;37075;44.084;2.962;2024-02-21T09:55:07;6.10;;;1.23;;
50517;SDS011;37075;44.084;2.962;2024-02-21T09:57:55;2.72;;;1.40;;
50517;SDS011;37075;44.084;2.962;2024-02-21T10:00:58;1.10;;;0.73;;
50517;SDS011;37075;44.084;2.962;2024-02-21T10:03:45;2.45;;;1.35;;
50517;SDS011;37075;44.084;2.962;2024-02-21T10:06:31;3.47;;;1.33;;
50517;SDS011;37075;44.084;2.962;2024-02-21T10:09:21;1.92;;;0.68;;
50517;SDS011;37075;44.084;2.962;2024-02-21T10:12:10;2.10;;;1.35;;
50517;SDS011;37075;44.084;2.962;2024-02-21T10:15:00;2.38;;;1.25;;
50517;SDS011;37075;44.084;2.962;2024-02-21T10:17:47;1.75;;;0.85;;
50517;SDS011;37075;44.084;2.962;2024-02-21T10:20:33;2.17;;;0.85;;
50517;SDS011;37075;44.084;2.962;2024-02-21T10:23:19;3.80;;;1.95;;
50517;SDS011;37075;44.084;2.962;2024-02-21T10:26:05;2.85;;;1.05;;
50517;SDS011;37075;44.084;2.962;2024-02-21T10:28:54;1.10;;;1.00;;
50517;SDS011;37075;44.084;2.962;2024-02-21T10:31:40;2.42;;;0.60;;
50517;SDS011;37075;44.084;2.962;2024-02-21T10:34:26;0.85;;;0.60;;
50517;SDS011;37075;44.084;2.962;2024-02-21T10:37:12;1.88;;;1.25;;
50517;SDS011;37075;44.084;2.962;2024-02-21T10:39:58;3.08;;;1.02;;
50517;SDS011;37075;44.084;2.962;2024-02-21T10:42:44;2.00;;;0.82;;
50517;SDS011;37075;44.084;2.962;2024-02-21T10:45:34;1.77;;;0.57;;
50517;SDS011;37075;44.084;2.962;2024-02-21T10:48:22;3.78;;;0.93;;
50517;SDS011;37075;44.084;2.962;2024-02-21T10:51:15;4.03;;;0.70;;
50517;SDS011;37075;44.084;2.962;2024-02-21T10:54:08;1.67;;;0.93;;
50517;SDS011;37075;44.084;2.962;2024-02-21T10:57:06;1.73;;;0.57;;
50517;SDS011;37075;44.084;2.962;2024-02-21T10:59:55;1.45;;;0.80;;
50517;SDS011;37075;44.084;2.962;2024-02-21T11:02:45;2.45;;;1.30;;
50517;SDS011;37075;44.084;2.962;2024-02-21T11:05:33;2.70;;;1.10;;
50517;SDS011;37075;44.084;2.962;2024-02-21T11:08:20;2.65;;;1.10;;
50517;SDS011;37075;44.084;2.962;2024-02-21T11:11:06;1.90;;;0.93;;
50517;SDS011;37075;44.084;2.962;2024-02-21T11:13:52;3.05;;;0.75;;
50517;SDS011;37075;44.084;2.962;2024-02-21T11:16:38;1.38;;;0.75;;
50517;SDS011;37075;44.084;2.962;2024-02-21T11:19:27;2.80;;;1.10;;
50517;SDS011;37075;44.084;2.962;2024-02-21T11:22:15;3.25;;;1.30;;
50517;SDS011;37075;44.084;2.962;2024-02-21T11:25:08;3.42;;;2.33;;
50517;SDS011;37075;44.084;2.962;2024-02-21T11:28:00;3.03;;;1.17;;
50517;SDS011;37075;44.084;2.962;2024-02-21T11:30:46;2.47;;;1.10;;
50517;SDS011;37075;44.084;2.962;2024-02-21T11:33:35;1.45;;;1.23;;
50517;SDS011;37075;44.084;2.962;2024-02-21T11:36:26;4.25;;;1.52;;
50517;SDS011;37075;44.084;2.962;2024-02-21T11:39:12;1.75;;;0.88;;
50517;SDS011;37075;44.084;2.962;2024-02-21T11:42:02;2.05;;;0.77;;
50517;SDS011;37075;44.084;2.962;2024-02-21T11:44:50;3.85;;;0.68;;
50517;SDS011;37075;44.084;2.962;2024-02-21T11:47:37;1.63;;;0.57;;
50517;SDS011;37075;44.084;2.962;2024-02-21T11:50:26;5.57;;;1.63;;
50517;SDS011;37075;44.084;2.962;2024-02-21T11:53:14;2.08;;;0.90;;
50517;SDS011;37075;44.084;2.962;2024-02-21T11:56:00;4.00;;;1.05;;
50517;SDS011;37075;44.084;2.962;2024-02-21T11:58:47;7.22;;;0.90;;
50517;SDS011;37075;44.084;2.962;2024-02-21T12:01:33;5.57;;;0.98;;
50517;SDS011;37075;44.084;2.962;2024-02-21T12:04:20;1.55;;;1.05;;
50517;SDS011;37075;44.084;2.962;2024-02-21T12:07:07;3.75;;;0.73;;
50517;SDS011;37075;44.084;2.962;2024-02-21T12:09:58;1.95;;;1.27;;
50517;SDS011;37075;44.084;2.962;2024-02-21T12:12:44;3.38;;;1.60;;
50517;SDS011;37075;44.084;2.962;2024-02-21T12:15:31;2.15;;;0.60;;
50517;SDS011;37075;44.084;2.962;2024-02-21T12:18:16;2.15;;;0.50;;
50517;SDS011;37075;44.084;2.962;2024-02-21T12:21:04;2.47;;;0.52;;
50517;SDS011;37075;44.084;2.962;2024-02-21T12:26:37;4.50;;;1.52;;
50517;SDS011;37075;44.084;2.962;2024-02-21T12:29:23;1.45;;;0.50;;
50517;SDS011;37075;44.084;2.962;2024-02-21T12:32:09;1.45;;;0.75;;
50517;SDS011;37075;44.084;2.962;2024-02-21T12:34:56;3.13;;;0.82;;
50517;SDS011;37075;44.084;2.962;2024-02-21T12:37:42;0.35;;;0.30;;
50517;SDS011;37075;44.084;2.962;2024-02-21T12:40:28;2.88;;;0.93;;
50517;SDS011;37075;44.084;2.962;2024-02-21T12:43:18;0.45;;;0.35;;
50517;SDS011;37075;44.084;2.962;2024-02-21T12:46:04;0.75;;;0.32;;
50517;SDS011;37075;44.084;2.962;2024-02-21T12:48:51;0.50;;;0.33;;
50517;SDS011;37075;44.084;2.962;2024-02-21T12:51:38;1.63;;;0.50;;
50517;SDS011;37075;44.084;2.962;2024-02-21T12:54:26;0.60;;;0.60;;
50517;SDS011;37075;44.084;2.962;2024-02-21T12:57:12;2.20;;;0.65;;
50517;SDS011;37075;44.084;2.962;2024-02-21T13:00:00;9.38;;;0.80;;
50517;SDS011;37075;44.084;2.962;2024-02-21T13:02:46;4.47;;;1.13;;
50517;SDS011;37075;44.084;2.962;2024-02-21T13:05:32;3.90;;;0.52;;
50517;SDS011;37075;44.084;2.962;2024-02-21T13:08:19;4.60;;;1.02;;
50517;SDS011;37075;44.084;2.962;2024-02-21T13:13:52;3.38;;;0.68;;
50517;SDS011;37075;44.084;2.962;2024-02-21T13:16:39;6.00;;;0.65;;
50517;SDS011;37075;44.084;2.962;2024-02-21T13:19:25;1.17;;;0.30;;
50517;SDS011;37075;44.084;2.962;2024-02-21T13:22:11;1.35;;;0.77;;
50517;SDS011;37075;44.084;2.962;2024-02-21T13:24:57;0.43;;;0.40;;
50517;SDS011;37075;44.084;2.962;2024-02-21T13:27:43;1.50;;;0.40;;
50517;SDS011;37075;44.084;2.962;2024-02-21T13:30:29;0.50;;;0.35;;
50517;SDS011;37075;44.084;2.962;2024-02-21T13:33:17;0.10;;;0.10;;
50517;SDS011;37075;44.084;2.962;2024-02-21T13:36:03;0.98;;;0.38;;
50517;SDS011;37075;44.084;2.962;2024-02-21T13:38:50;0.43;;;0.43;;
50517;SDS011;37075;44.084;2.962;2024-02-21T13:41:37;0.50;;;0.50;;
50517;SDS011;37075;44.084;2.962;2024-02-21T13:44:23;0.82;;;0.40;;
50517;SDS011;37075;44.084;2.962;2024-02-21T13:47:09;0.15;;;0.13;;
50517;SDS011;37075;44.084;2.962;2024-02-21T13:49:59;0.00;;;0.00;;
50517;SDS011;37075;44.084;2.962;2024-02-21T13:55:31;0.77;;;0.30;;
50517;SDS011;37075;44.084;2.962;2024-02-21T13:58:17;0.50;;;0.10;;
50517;SDS011;37075;44.084;2.962;2024-02-21T14:01:03;0.65;;;0.10;;
50517;SDS011;37075;44.084;2.962;2024-02-21T14:03:49;0.28;;;0.10;;
50517;SDS011;37075;44.084;2.962;2024-02-21T14:06:36;1.40;;;0.28;;
50517;SDS011;37075;44.084;2.962;2024-02-21T14:09:27;0.88;;;0.20;;
50517;SDS011;37075;44.084;2.962;2024-02-21T14:12:14;0.50;;;0.40;;
50517;SDS011;37075;44.084;2.962;2024-02-21T14:15:05;0.45;;;0.28;;
50517;SDS011;37075;44.084;2.962;2024-02-21T14:17:51;3.72;;;0.20;;
50517;SDS011;37075;44.084;2.962;2024-02-21T14:20:37;0.00;;;0.00;;
50517;SDS011;37075;44.084;2.962;2024-02-21T14:23:26;2.00;;;0.30;;
50517;SDS011;37075;44.084;2.962;2024-02-21T14:26:12;1.05;;;0.40;;
50517;SDS011;37075;44.084;2.962;2024-02-21T14:28:59;0.20;;;0.10;;
50517;SDS011;37075;44.084;2.962;2024-02-21T14:31:45;0.77;;;0.30;;
50517;SDS011;37075;44.084;2.962;2024-02-21T14:34:31;1.45;;;0.50;;
50517;SDS011;37075;44.084;2.962;2024-02-21T14:37:17;1.08;;;0.10;;
50517;SDS011;37075;44.084;2.962;2024-02-21T14:40:05;0.85;;;0.40;;
50517;SDS011;37075;44.084;2.962;2024-02-21T14:42:52;0.30;;;0.20;;
50517;SDS011;37075;44.084;2.962;2024-02-21T14:45:38;0.47;;;0.22;;
50517;SDS011;37075;44.084;2.962;2024-02-21T14:48:24;0.77;;;0.30;;
50517;SDS011;37075;44.084;2.962;2024-02-21T14:51:10;0.43;;;0.17;;
50517;SDS011;37075;44.084;2.962;2024-02-21T14:53:57;1.50;;;0.10;;
50517;SDS011;37075;44.084;2.962;2024-02-21T14:56:44;1.50;;;0.10;;
50517;SDS011;37075;44.084;2.962;2024-02-21T14:59:31;0.82;;;0.40;;
50517;SDS011;37075;44.084;2.962;2024-02-21T15:02:17;0.22;;;0.15;;
50517;SDS011;37075;44.084;2.962;2024-02-21T15:05:04;0.75;;;0.28;;
50517;SDS011;37075;44.084;2.962;2024-02-21T15:10:36;0.90;;;0.30;;
50517;SDS011;37075;44.084;2.962;2024-02-21T15:13:24;0.10;;;0.10;;
50517;SDS011;37075;44.084;2.962;2024-02-21T15:16:10;1.83;;;0.10;;
50517;SDS011;37075;44.084;2.962;2024-02-21T15:18:57;0.33;;;0.13;;
50517;SDS011;37075;44.084;2.962;2024-02-21T15:21:43;0.43;;;0.40;;
50517;SDS011;37075;44.084;2.962;2024-02-21T15:24:29;0.30;;;0.30;;
50517;SDS011;37075;44.084;2.962;2024-02-21T15:27:15;1.15;;;0.40;;
50517;SDS011;37075;44.084;2.962;2024-02-21T15:30:03;0.70;;;0.27;;
50517;SDS011;37075;44.084;2.962;2024-02-21T15:32:50;0.50;;;0.10;;
50517;SDS011;37075;44.084;2.962;2024-02-21T15:35:37;0.25;;;0.10;;
50517;SDS011;37075;44.084;2.962;2024-02-21T15:38:23;0.40;;;0.28;;
50517;SDS011;37075;44.084;2.962;2024-02-21T15:41:10;1.27;;;0.47;;
50517;SDS011;37075;44.084;2.962;2024-02-21T15:43:57;0.30;;;0.30;;
50517;SDS011;37075;44.084;2.962;2024-02-21T15:46:45;1.05;;;0.40;;
50517;SDS011;37075;44.084;2.962;2024-02-21T15:49:31;1.98;;;0.20;;
50517;SDS011;37075;44.084;2.962;2024-02-21T15:52:17;1.35;;;0.73;;
50517;SDS011;37075;44.084;2.962;2024-02-21T15:55:03;0.20;;;0.20;;
50517;SDS011;37075;44.084;2.962;2024-02-21T15:57:51;1.58;;;0.40;;
50517;SDS011;37075;44.084;2.962;2024-02-21T16:00:37;2.05;;;0.20;;
50517;SDS011;37075;44.084;2.962;2024-02-21T16:03:25;0.95;;;0.43;;
50517;SDS011;37075;44.084;2.962;2024-02-21T16:06:11;0.88;;;0.40;;
50517;SDS011;37075;44.084;2.962;2024-02-21T16:08:57;0.60;;;0.52;;
50517;SDS011;37075;44.084;2.962;2024-02-21T16:11:43;1.90;;;0.75;;
50517;SDS011;37075;44.084;2.962;2024-02-21T16:14:29;1.70;;;0.40;;
50517;SDS011;37075;44.084;2.962;2024-02-21T16:17:14;1.58;;;0.57;;
50517;SDS011;37075;44.084;2.962;2024-02-21T16:20:02;2.15;;;0.80;;
50517;SDS011;37075;44.084;2.962;2024-02-21T16:22:48;0.75;;;0.20;;
50517;SDS011;37075;44.084;2.962;2024-02-21T16:25:34;2.20;;;0.40;;
50517;SDS011;37075;44.084;2.962;2024-02-21T16:28:20;0.68;;;0.40;;
50517;SDS011;37075;44.084;2.962;2024-02-21T16:31:06;1.23;;;0.75;;
50517;SDS011;37075;44.084;2.962;2024-02-21T16:33:53;0.98;;;0.25;;
50517;SDS011;37075;44.084;2.962;2024-02-21T16:36:41;0.20;;;0.20;;
50517;SDS011;37075;44.084;2.962;2024-02-21T16:39:27;0.98;;;0.63;;
50517;SDS011;37075;44.084;2.962;2024-02-21T16:42:13;0.30;;;0.20;;
50517;SDS011;37075;44.084;2.962;2024-02-21T16:44:58;0.63;;;0.30;;
50517;SDS011;37075;44.084;2.962;2024-02-21T16:47:45;1.17;;;0.40;;
50517;SDS011;37075;44.084;2.962;2024-02-21T16:50:32;1.13;;;0.20;;
50517;SDS011;37075;44.084;2.962;2024-02-21T16:53:19;0.80;;;0.30;;
50517;SDS011;37075;44.084;2.962;2024-02-21T16:56:06;1.67;;;0.28;;
50517;SDS011;37075;44.084;2.962;2024-02-21T16:58:52;2.22;;;0.28;;
50517;SDS011;37075;44.084;2.962;2024-02-21T17:01:38;0.45;;;0.30;;
50517;SDS011;37075;44.084;2.962;2024-02-21T17:04:27;0.50;;;0.45;;